Time;durP1;ratioP1;P1;durP2;ratioP2;P2;SDS_P1;SDS_P2;PMS_P1;PMS_P2;Temp;Humidity;BMP_temperature;BMP_pressure;BME280_temperature;BME280_humidity;BME280_pressure;Samples;Min_cycle;Max_cycle;Signal;HPM_P1;HPM_P2
2022/03/19 00:00:51;;;;;;;66.20;33.50;;;6.10;99.90;;;;;;5102251;28;20023;-89
2022/03/19 00:03:20;;;;;;;72.93;31.98;;;6.10;99.90;;;;;;5111225;28;20023;-89
2022/03/19 00:05:47;;;;;;;67.40;32.60;;;6.00;99.90;;;;;;5122637;28;20052;-89
2022/03/19 00:08:16;;;;;;;65.15;31.58;;;6.00;99.90;;;;;;5101697;28;20024;-89
2022/03/19 00:10:45;;;;;;;70.65;35.08;;;6.00;99.90;;;;;;5123576;28;20027;-89
2022/03/19 00:13:12;;;;;;;70.35;33.22;;;6.00;99.90;;;;;;5125842;28;20058;-89
2022/03/19 00:15:41;;;;;;;73.75;32.72;;;5.90;99.90;;;;;;5089630;28;20533;-88
2022/03/19 00:18:07;;;;;;;70.18;34.55;;;5.90;99.90;;;;;;5110507;28;20035;-89
2022/03/19 00:20:35;;;;;;;70.55;34.38;;;5.80;99.90;;;;;;5076333;28;20024;-89
2022/03/19 00:23:02;;;;;;;68.68;34.42;;;5.70;99.90;;;;;;5115401;28;20026;-88
2022/03/19 00:25:27;;;;;;;67.70;33.70;;;5.70;99.90;;;;;;5117585;28;20034;-88
2022/03/19 00:27:53;;;;;;;72.88;33.58;;;5.60;99.90;;;;;;5104991;28;20024;-88
2022/03/19 00:30:20;;;;;;;64.60;33.15;;;5.60;99.90;;;;;;5088567;28;20046;-87
2022/03/19 00:32:46;;;;;;;71.60;34.17;;;5.50;99.90;;;;;;5086187;28;20555;-88
2022/03/19 00:35:12;;;;;;;71.60;34.28;;;5.50;99.90;;;;;;5108795;28;20020;-88
2022/03/19 00:37:49;;;;;;;72.55;35.03;;;5.50;99.90;;;;;;5117647;28;20076;-87
2022/03/19 00:40:17;;;;;;;76.07;34.75;;;5.50;99.90;;;;;;5118090;28;20028;-88
2022/03/19 00:42:44;;;;;;;68.25;32.00;;;5.50;99.90;;;;;;5118094;28;20005;-89
2022/03/19 00:45:10;;;;;;;71.45;34.70;;;5.50;99.90;;;;;;5112663;28;20032;-86
2022/03/19 00:47:36;;;;;;;70.13;34.30;;;5.50;99.90;;;;;;5093987;28;20024;-87
2022/03/19 00:50:04;;;;;;;70.97;34.80;;;5.50;99.90;;;;;;5118310;28;20008;-89
2022/03/19 00:52:30;;;;;;;71.35;33.45;;;5.50;99.90;;;;;;5117799;28;20036;-87
2022/03/19 00:54:56;;;;;;;68.63;32.05;;;5.50;99.90;;;;;;5117425;28;20016;-88
2022/03/19 00:57:22;;;;;;;69.75;34.28;;;5.50;99.90;;;;;;5111467;28;20048;-87
2022/03/19 00:59:47;;;;;;;68.68;34.83;;;5.60;99.90;;;;;;5107568;28;20055;-89
2022/03/19 01:02:13;;;;;;;77.72;33.42;;;5.50;99.90;;;;;;5108630;28;20006;-87
2022/03/19 01:04:39;;;;;;;70.25;34.20;;;5.50;99.90;;;;;;5111318;28;20039;-89
2022/03/19 01:07:05;;;;;;;71.75;34.35;;;5.40;99.90;;;;;;5103477;28;20042;-88
2022/03/19 01:09:31;;;;;;;69.15;32.10;;;5.40;99.90;;;;;;5087821;28;20064;-88
2022/03/19 01:11:57;;;;;;;68.05;32.92;;;5.30;99.90;;;;;;5103521;28;20028;-89
2022/03/19 01:14:23;;;;;;;69.63;33.15;;;5.30;99.90;;;;;;5103246;28;20087;-88
2022/03/19 01:16:48;;;;;;;73.50;32.30;;;5.30;99.90;;;;;;5101373;28;20050;-89
2022/03/19 01:19:14;;;;;;;68.32;33.45;;;5.20;99.90;;;;;;5101454;28;20047;-89
2022/03/19 01:21:40;;;;;;;68.78;33.95;;;5.20;99.90;;;;;;5101192;28;20068;-88
2022/03/19 01:24:07;;;;;;;69.72;33.60;;;5.20;99.90;;;;;;5107110;28;20019;-88
2022/03/19 01:26:33;;;;;;;68.30;33.83;;;5.10;99.90;;;;;;5106785;28;20108;-88
2022/03/19 01:28:59;;;;;;;67.60;32.70;;;5.10;99.90;;;;;;5105674;28;20020;-88
2022/03/19 01:31:27;;;;;;;63.00;31.40;;;5.10;99.90;;;;;;5087740;28;20031;-88
2022/03/19 01:33:53;;;;;;;66.85;32.42;;;5.10;99.90;;;;;;5099319;28;20035;-88
2022/03/19 01:36:19;;;;;;;73.22;35.10;;;5.10;99.90;;;;;;5117716;28;20016;-90
2022/03/19 01:38:45;;;;;;;70.00;33.40;;;5.00;99.90;;;;;;5115653;28;20028;-87
2022/03/19 01:41:11;;;;;;;67.95;32.95;;;5.00;99.90;;;;;;5120820;28;20044;-87
2022/03/19 01:43:38;;;;;;;66.63;32.03;;;5.00;99.90;;;;;;5121447;28;20513;-89
2022/03/19 01:46:04;;;;;;;69.50;32.85;;;5.00;99.90;;;;;;5117415;28;20031;-88
2022/03/19 01:48:29;;;;;;;68.68;32.72;;;4.90;99.90;;;;;;5112444;28;20028;-88
2022/03/19 01:50:55;;;;;;;70.03;33.45;;;4.90;99.90;;;;;;5121296;28;20034;-88
2022/03/19 01:53:21;;;;;;;63.35;31.73;;;4.90;99.90;;;;;;5120313;28;20101;-87
2022/03/19 01:55:47;;;;;;;72.05;33.80;;;4.90;99.90;;;;;;5117803;28;20105;-88
2022/03/19 01:58:16;;;;;;;70.93;32.65;;;4.90;99.90;;;;;;5112552;28;20028;-88
2022/03/19 02:00:42;;;;;;;71.80;34.22;;;4.80;99.90;;;;;;5110963;28;20016;-89
2022/03/19 02:03:08;;;;;;;69.57;32.05;;;4.80;99.90;;;;;;5118429;28;20038;-87
2022/03/19 02:05:34;;;;;;;71.05;34.22;;;4.80;99.90;;;;;;5120562;28;20032;-86
2022/03/19 02:08:00;;;;;;;71.03;33.25;;;4.80;99.90;;;;;;5120579;28;20070;-87
2022/03/19 02:10:26;;;;;;;71.15;32.88;;;4.70;99.90;;;;;;5121019;28;20012;-88
2022/03/19 02:12:53;;;;;;;67.00;33.58;;;4.80;99.90;;;;;;5119334;28;20058;-89
2022/03/19 02:15:19;;;;;;;70.45;34.38;;;4.70;99.90;;;;;;5114508;28;20023;-88
2022/03/19 02:17:44;;;;;;;77.63;34.42;;;4.70;99.90;;;;;;5119180;28;20020;-87
2022/03/19 02:20:12;;;;;;;81.05;35.70;;;4.70;99.90;;;;;;5119724;28;20028;-87
2022/03/19 02:22:38;;;;;;;71.30;34.95;;;4.60;99.90;;;;;;5119814;28;20050;-87
2022/03/19 02:27:48;;;;;;;74.22;32.75;;;4.60;99.90;;;;;;5105374;28;20040;-88
2022/03/19 02:30:16;;;;;;;64.57;31.90;;;4.50;99.90;;;;;;5103624;28;20031;-88
2022/03/19 02:32:49;;;;;;;65.13;31.92;;;4.50;99.90;;;;;;5115518;28;20096;-88
2022/03/19 02:35:18;;;;;;;61.72;31.27;;;4.40;99.90;;;;;;5134600;22;20041;-80
2022/03/19 02:37:47;;;;;;;64.78;30.75;;;4.30;99.90;;;;;;5077294;28;20075;-81
2022/03/19 02:40:15;;;;;;;65.95;32.22;;;4.20;99.90;;;;;;5060048;28;20104;-81
2022/03/19 02:42:47;;;;;;;68.00;31.70;;;4.20;99.90;;;;;;5077576;28;20017;-81
2022/03/19 02:45:13;;;;;;;61.70;30.30;;;4.10;99.90;;;;;;5070151;28;20018;-80
2022/03/19 02:47:57;;;;;;;66.65;31.75;;;4.10;99.90;;;;;;5053351;28;20064;-82
2022/03/19 02:50:27;;;;;;;65.55;30.55;;;4.00;99.90;;;;;;5045894;28;20040;-82
2022/03/19 02:52:54;;;;;;;67.43;31.88;;;4.00;99.90;;;;;;5044833;28;20100;-83
2022/03/19 02:55:20;;;;;;;67.63;31.73;;;4.00;99.90;;;;;;5026452;28;20026;-82
2022/03/19 02:57:46;;;;;;;69.82;31.27;;;3.90;99.90;;;;;;5043606;28;20026;-83
2022/03/19 03:00:12;;;;;;;62.10;30.88;;;3.90;99.90;;;;;;5025227;28;20021;-84
2022/03/19 03:02:38;;;;;;;71.15;31.35;;;3.90;99.90;;;;;;5026229;28;20504;-82
2022/03/19 03:05:05;;;;;;;66.13;31.23;;;3.90;99.90;;;;;;5049074;28;20026;-79
2022/03/19 03:07:31;;;;;;;62.13;32.17;;;3.80;99.90;;;;;;5049440;28;20029;-81
2022/03/19 03:09:56;;;;;;;69.97;32.83;;;3.80;99.90;;;;;;5051944;28;20012;-82
2022/03/19 03:12:23;;;;;;;70.15;32.60;;;3.80;99.90;;;;;;5025695;28;20033;-81
2022/03/19 03:14:49;;;;;;;66.70;30.95;;;3.70;99.90;;;;;;5028238;28;20097;-82
2022/03/19 03:17:14;;;;;;;68.50;32.05;;;3.70;99.90;;;;;;5028252;28;20045;-84
2022/03/19 03:19:41;;;;;;;70.10;34.28;;;3.60;99.90;;;;;;5044354;28;20026;-83
2022/03/19 03:22:09;;;;;;;75.40;33.15;;;3.60;99.90;;;;;;5048072;28;20053;-83
2022/03/19 03:24:35;;;;;;;69.07;33.35;;;3.50;99.90;;;;;;5028470;28;20401;-80
2022/03/19 03:27:01;;;;;;;76.38;34.10;;;3.50;99.90;;;;;;5057231;28;20044;-81
2022/03/19 03:29:27;;;;;;;68.57;32.80;;;3.40;99.90;;;;;;5026231;28;20026;-82
2022/03/19 03:31:54;;;;;;;80.40;34.47;;;3.40;99.90;;;;;;5055518;28;20009;-80
2022/03/19 03:34:20;;;;;;;77.32;35.50;;;3.30;99.90;;;;;;5055791;28;20017;-80
2022/03/19 03:36:46;;;;;;;79.65;35.10;;;3.30;99.90;;;;;;5039097;28;20031;-81
2022/03/19 03:39:13;;;;;;;75.22;35.80;;;3.30;99.90;;;;;;5055524;28;20025;-80
2022/03/19 03:41:39;;;;;;;77.50;35.28;;;3.30;99.90;;;;;;5055430;28;20018;-79
2022/03/19 03:44:05;;;;;;;72.38;33.70;;;3.30;99.90;;;;;;5037793;28;20048;-80
2022/03/19 03:46:31;;;;;;;74.22;33.70;;;3.30;99.90;;;;;;5054161;28;20015;-78
2022/03/19 03:48:57;;;;;;;68.55;32.90;;;3.30;99.90;;;;;;5014313;28;20026;-84
2022/03/19 03:51:23;;;;;;;70.78;33.53;;;3.30;99.90;;;;;;5021553;28;20031;-82
2022/03/19 03:53:48;;;;;;;68.78;33.75;;;3.40;99.90;;;;;;5042041;28;20026;-81
2022/03/19 03:56:14;;;;;;;72.15;34.50;;;3.40;99.90;;;;;;5048422;28;20039;-82
2022/03/19 03:58:43;;;;;;;74.43;33.88;;;3.40;99.90;;;;;;5033003;28;20041;-81
2022/03/19 04:01:09;;;;;;;74.32;33.67;;;3.50;99.90;;;;;;5054827;28;20013;-81
2022/03/19 04:03:35;;;;;;;71.50;33.67;;;3.60;99.90;;;;;;5038997;28;20037;-81
2022/03/19 04:06:01;;;;;;;72.43;34.60;;;3.60;99.90;;;;;;5038439;28;20030;-82
2022/03/19 04:08:26;;;;;;;64.43;32.13;;;3.70;99.90;;;;;;5055142;28;20022;-81
2022/03/19 04:10:52;;;;;;;83.50;34.70;;;3.80;99.90;;;;;;5055015;28;20060;-80
2022/03/19 04:13:18;;;;;;;73.68;34.55;;;3.80;99.90;;;;;;5054793;28;20013;-81
2022/03/19 04:15:44;;;;;;;72.63;35.00;;;3.90;99.90;;;;;;5046894;28;20029;-80
2022/03/19 04:18:11;;;;;;;63.60;31.52;;;3.90;99.90;;;;;;5048268;28;20029;-83
2022/03/19 04:20:37;;;;;;;68.07;31.95;;;3.90;99.90;;;;;;5042688;28;20033;-83
2022/03/19 04:23:03;;;;;;;71.22;33.20;;;4.00;99.90;;;;;;5044983;28;20022;-81
2022/03/19 04:25:28;;;;;;;69.40;32.47;;;4.00;99.90;;;;;;5032708;28;20291;-81
2022/03/19 04:27:55;;;;;;;72.22;31.38;;;4.10;99.90;;;;;;5047110;28;20076;-83
2022/03/19 04:30:24;;;;;;;70.05;32.30;;;4.00;99.90;;;;;;5024157;28;20067;-83
2022/03/19 04:33:01;;;;;;;67.57;32.25;;;4.00;99.90;;;;;;5042198;28;20026;-83
2022/03/19 04:38:15;;;;;;;84.63;35.05;;;3.90;99.90;;;;;;5043872;28;20032;-83
2022/03/19 04:40:42;;;;;;;68.88;33.90;;;3.80;99.90;;;;;;5044008;28;20036;-83
2022/03/19 04:43:08;;;;;;;73.07;34.45;;;3.80;99.90;;;;;;5043957;28;20037;-83
2022/03/19 04:45:39;;;;;;;76.35;35.03;;;3.70;99.90;;;;;;5026303;28;20029;-81
2022/03/19 04:48:05;;;;;;;75.05;34.08;;;3.60;99.90;;;;;;5047957;28;20013;-82
2022/03/19 04:50:35;;;;;;;70.07;33.97;;;3.50;99.90;;;;;;5030976;28;20053;-80
2022/03/19 04:53:01;;;;;;;76.57;35.38;;;3.50;99.90;;;;;;5011344;28;20469;-83
2022/03/19 04:55:26;;;;;;;72.10;34.30;;;3.40;99.90;;;;;;5042582;28;20041;-83
2022/03/19 04:57:52;;;;;;;81.65;35.90;;;3.40;99.90;;;;;;5041406;28;20029;-82
2022/03/19 05:00:20;;;;;;;79.63;34.35;;;3.40;99.90;;;;;;5022724;28;20032;-83
2022/03/19 05:02:46;;;;;;;85.50;34.67;;;3.40;99.90;;;;;;5020395;28;20061;-82
2022/03/19 05:05:12;;;;;;;75.22;34.25;;;3.40;99.90;;;;;;5021336;28;20025;-82
2022/03/19 05:07:39;;;;;;;72.28;33.90;;;3.50;99.90;;;;;;5038448;28;20033;-84
2022/03/19 05:12:52;;;;;;;75.28;34.03;;;3.50;99.90;;;;;;5039838;28;20108;-82
2022/03/19 05:15:20;;;;;;;73.90;34.63;;;3.50;99.90;;;;;;5045822;28;20061;-82
2022/03/19 05:17:45;;;;;;;76.68;34.90;;;3.50;99.90;;;;;;5048092;28;20033;-84
2022/03/19 05:20:13;;;;;;;78.90;35.42;;;3.50;99.90;;;;;;5027753;28;20030;-83
2022/03/19 05:22:39;;;;;;;72.28;33.47;;;3.50;99.90;;;;;;5034858;28;20021;-81
2022/03/19 05:25:05;;;;;;;73.63;33.55;;;3.60;99.90;;;;;;5052347;28;20064;-82
2022/03/19 05:27:31;;;;;;;78.70;35.85;;;3.60;99.90;;;;;;5042018;28;20017;-81
2022/03/19 05:29:57;;;;;;;72.63;34.08;;;3.60;99.90;;;;;;5025305;28;20025;-81
2022/03/19 05:32:23;;;;;;;80.30;33.42;;;3.60;99.90;;;;;;5024323;28;20115;-83
2022/03/19 05:34:50;;;;;;;75.75;34.35;;;3.60;99.90;;;;;;5027139;28;20033;-81
2022/03/19 05:37:16;;;;;;;79.35;34.70;;;3.60;99.90;;;;;;5054521;28;20117;-83
2022/03/19 05:39:43;;;;;;;69.43;33.25;;;3.70;99.90;;;;;;5056487;28;20034;-80
2022/03/19 05:42:11;;;;;;;81.03;34.40;;;3.70;99.90;;;;;;5047045;28;20048;-79
2022/03/19 05:44:37;;;;;;;77.60;34.38;;;3.80;99.90;;;;;;5026427;28;20029;-81
2022/03/19 05:47:04;;;;;;;69.53;33.53;;;3.80;99.90;;;;;;5043748;28;20025;-82
2022/03/19 05:49:30;;;;;;;67.15;32.35;;;3.90;99.90;;;;;;5042400;28;20385;-84
2022/03/19 05:51:57;;;;;;;69.32;32.63;;;4.00;99.90;;;;;;5022267;28;20121;-83
2022/03/19 05:54:24;;;;;;;65.53;31.33;;;4.00;99.90;;;;;;5041613;28;20384;-83
2022/03/19 05:56:50;;;;;;;69.43;31.40;;;4.20;99.90;;;;;;5024050;28;20659;-84
2022/03/19 05:59:15;;;;;;;61.92;30.67;;;4.30;99.90;;;;;;5025579;28;20026;-83
2022/03/19 06:01:44;;;;;;;69.63;30.50;;;4.30;99.90;;;;;;5042202;28;20029;-84
2022/03/19 06:04:10;;;;;;;66.57;30.00;;;4.40;99.90;;;;;;5024605;28;20021;-85
2022/03/19 06:06:36;;;;;;;64.80;30.50;;;4.40;99.90;;;;;;5024223;28;20021;-84
2022/03/19 06:09:03;;;;;;;67.82;30.95;;;4.50;99.90;;;;;;5042125;28;20511;-84
2022/03/19 06:11:29;;;;;;;77.18;30.85;;;4.60;99.90;;;;;;5016308;28;20561;-85
2022/03/19 06:13:55;;;;;;;66.05;30.45;;;4.80;99.90;;;;;;5011372;28;20061;-85
2022/03/19 06:16:21;;;;;;;61.92;30.52;;;4.90;99.90;;;;;;5014013;28;20030;-85
2022/03/19 06:18:50;;;;;;;59.70;28.73;;;4.90;99.90;;;;;;5034561;28;20026;-85
2022/03/19 06:21:16;;;;;;;60.42;27.80;;;5.00;99.90;;;;;;5034131;28;20071;-85
2022/03/19 06:23:44;;;;;;;64.00;27.77;;;5.00;99.90;;;;;;5017960;28;20018;-85
2022/03/19 06:26:10;;;;;;;70.00;26.80;;;5.10;99.90;;;;;;4999498;28;20024;-85
2022/03/19 06:28:36;;;;;;;59.17;27.75;;;5.10;99.90;;;;;;5042844;28;20002;-84
2022/03/19 06:31:02;;;;;;;56.65;27.13;;;5.20;99.90;;;;;;5029831;28;20041;-87
2022/03/19 06:33:28;;;;;;;56.65;27.23;;;5.30;99.90;;;;;;5044838;28;20018;-88
2022/03/19 06:38:39;;;;;;;55.23;27.27;;;5.40;99.90;;;;;;5041011;28;20045;-87
2022/03/19 06:41:05;;;;;;;61.53;29.05;;;5.50;99.90;;;;;;5038220;28;20021;-87
2022/03/19 06:43:31;;;;;;;56.47;27.88;;;5.60;99.90;;;;;;5038901;28;20113;-86
2022/03/19 06:46:00;;;;;;;58.10;28.25;;;5.60;99.90;;;;;;5018529;28;20053;-87
2022/03/19 06:48:26;;;;;;;58.75;27.65;;;5.70;99.90;;;;;;5036988;28;20033;-86
2022/03/19 06:50:55;;;;;;;55.45;27.67;;;5.70;99.90;;;;;;5017564;28;20137;-86
2022/03/19 06:53:38;;;;;;;64.68;28.90;;;5.80;99.90;;;;;;5032244;28;20038;-88
2022/03/19 06:56:05;;;;;;;52.00;26.98;;;6.00;99.80;;;;;;5014880;28;20064;-87
2022/03/19 06:58:32;;;;;;;55.60;27.23;;;6.10;99.50;;;;;;5014977;28;20022;-88
2022/03/19 07:00:58;;;;;;;56.55;26.08;;;6.20;99.10;;;;;;5040197;28;20018;-87
2022/03/19 07:03:31;;;;;;;53.58;26.65;;;6.20;98.70;;;;;;5022823;28;20034;-87
2022/03/19 07:05:57;;;;;;;58.60;27.70;;;6.20;98.50;;;;;;5042202;28;20053;-87
2022/03/19 07:08:23;;;;;;;52.83;26.50;;;6.20;98.40;;;;;;5042240;28;20013;-88
2022/03/19 07:10:49;;;;;;;57.42;27.90;;;6.20;98.20;;;;;;5025573;28;20032;-90
2022/03/19 07:13:15;;;;;;;55.78;26.50;;;6.20;97.90;;;;;;5038107;28;20040;-88
2022/03/19 07:15:41;;;;;;;55.33;27.42;;;6.20;97.90;;;;;;5052513;28;20040;-86
2022/03/19 07:18:07;;;;;;;55.35;26.35;;;6.20;98.20;;;;;;5019998;28;20045;-87
2022/03/19 07:20:33;;;;;;;54.65;28.83;;;6.20;98.10;;;;;;5056060;28;20029;-88
2022/03/19 07:23:02;;;;;;;54.30;27.77;;;6.20;98.20;;;;;;5025552;28;20053;-86
2022/03/19 07:25:30;;;;;;;60.78;29.67;;;6.30;98.10;;;;;;5033252;28;20018;-83
2022/03/19 07:27:58;;;;;;;60.13;28.70;;;6.30;98.10;;;;;;5028564;28;20079;-84
2022/03/19 07:30:25;;;;;;;60.00;27.98;;;6.30;98.00;;;;;;5027469;28;20030;-85
2022/03/19 07:32:51;;;;;;;54.83;26.33;;;6.40;98.20;;;;;;5032631;28;20046;-86
2022/03/19 07:35:19;;;;;;;60.78;27.55;;;6.50;97.40;;;;;;5037964;28;20044;-85
2022/03/19 07:37:47;;;;;;;59.38;27.77;;;6.60;97.50;;;;;;5038791;28;20018;-85
2022/03/19 07:40:15;;;;;;;59.25;27.00;;;6.70;97.40;;;;;;5032726;28;20030;-85
2022/03/19 07:42:41;;;;;;;53.90;26.80;;;6.70;96.70;;;;;;5034678;28;20037;-85
2022/03/19 07:45:08;;;;;;;50.63;25.38;;;6.70;96.50;;;;;;5016850;28;20030;-85
2022/03/19 07:47:35;;;;;;;56.13;25.13;;;6.70;96.00;;;;;;5035163;28;20056;-85
2022/03/19 07:50:01;;;;;;;55.55;26.52;;;6.90;95.80;;;;;;5029861;28;20477;-86
2022/03/19 07:52:28;;;;;;;56.72;26.88;;;6.90;95.60;;;;;;5007965;28;20046;-85
2022/03/19 07:54:54;;;;;;;50.55;24.13;;;7.00;94.90;;;;;;5009283;28;20448;-87
2022/03/19 07:57:22;;;;;;;48.78;24.35;;;7.10;94.00;;;;;;5018028;28;20032;-85
2022/03/19 07:59:49;;;;;;;46.72;24.67;;;7.10;93.60;;;;;;5035976;28;20116;-88
2022/03/19 08:02:15;;;;;;;47.45;24.20;;;7.20;93.40;;;;;;5044914;28;20060;-85
2022/03/19 08:04:41;;;;;;;48.83;25.23;;;7.20;93.10;;;;;;5024716;28;20033;-85
2022/03/19 08:07:07;;;;;;;48.25;24.52;;;7.30;92.90;;;;;;5025901;28;20085;-86
2022/03/19 08:09:33;;;;;;;50.55;23.38;;;7.30;92.70;;;;;;5045601;28;20033;-88
2022/03/19 08:12:00;;;;;;;44.97;22.92;;;7.40;92.60;;;;;;5028717;28;20081;-86
2022/03/19 08:14:27;;;;;;;48.55;23.92;;;7.40;92.30;;;;;;5048367;28;20068;-85
2022/03/19 08:16:53;;;;;;;48.10;24.75;;;7.50;92.30;;;;;;5052433;28;20036;-85
2022/03/19 08:19:19;;;;;;;46.78;23.33;;;7.70;91.90;;;;;;5035587;28;20048;-86
2022/03/19 08:21:45;;;;;;;46.13;23.58;;;7.80;91.80;;;;;;5050811;28;20537;-84
2022/03/19 08:24:12;;;;;;;47.30;22.70;;;7.80;91.80;;;;;;5036208;28;20025;-85
2022/03/19 08:26:39;;;;;;;49.25;24.35;;;7.80;91.90;;;;;;5034434;28;20022;-85
2022/03/19 08:29:05;;;;;;;55.70;25.23;;;7.90;91.70;;;;;;5038666;28;20033;-86
2022/03/19 08:31:32;;;;;;;52.80;24.55;;;8.00;91.40;;;;;;5039660;28;20018;-83
2022/03/19 08:33:59;;;;;;;48.00;24.98;;;8.00;91.50;;;;;;5057377;28;20025;-83
2022/03/19 08:36:24;;;;;;;50.72;24.65;;;8.20;91.40;;;;;;5057480;28;20092;-84
2022/03/19 08:41:35;;;;;;;50.92;23.95;;;8.30;90.80;;;;;;5056765;28;20049;-85
2022/03/19 08:44:02;;;;;;;43.30;23.40;;;8.40;90.70;;;;;;5034554;28;20053;-85
2022/03/19 08:46:28;;;;;;;50.78;25.27;;;8.40;91.00;;;;;;5037366;28;20025;-86
2022/03/19 08:48:54;;;;;;;53.53;25.33;;;8.50;90.70;;;;;;5054316;28;20029;-86
2022/03/19 08:54:06;;;;;;;47.35;24.63;;;8.60;90.60;;;;;;5057912;28;20114;-84
2022/03/19 08:56:32;;;;;;;47.35;24.00;;;8.60;90.40;;;;;;5036260;23;20066;-84
2022/03/19 08:58:58;;;;;;;49.85;23.30;;;8.60;90.30;;;;;;5021797;28;20038;-83
2022/03/19 09:01:24;;;;;;;46.53;24.42;;;8.70;90.10;;;;;;5019736;28;20010;-86
2022/03/19 09:03:50;;;;;;;43.75;23.83;;;8.80;89.60;;;;;;5018195;28;20042;-83
2022/03/19 09:06:17;;;;;;;46.67;24.55;;;9.00;89.40;;;;;;5000818;28;20027;-82
2022/03/19 09:08:45;;;;;;;48.13;23.13;;;9.40;88.50;;;;;;5015576;28;20026;-83
2022/03/19 09:11:11;;;;;;;44.42;23.35;;;9.90;86.70;;;;;;5013881;28;20078;-83
2022/03/19 09:13:38;;;;;;;47.10;24.35;;;10.40;84.60;;;;;;4996982;28;20042;-84
2022/03/19 09:16:04;;;;;;;45.25;22.90;;;11.20;83.10;;;;;;5013912;28;20037;-83
2022/03/19 09:18:31;;;;;;;49.97;23.25;;;12.30;80.10;;;;;;4978880;28;20048;-81
2022/03/19 09:20:57;;;;;;;41.55;22.55;;;13.30;76.40;;;;;;5013387;28;20026;-85
2022/03/19 09:23:24;;;;;;;45.75;24.08;;;14.00;74.40;;;;;;4996592;28;20038;-84
2022/03/19 09:25:50;;;;;;;45.67;24.45;;;15.20;71.30;;;;;;5014254;28;20110;-83
2022/03/19 09:28:16;;;;;;;41.47;23.52;;;16.10;67.70;;;;;;4994532;28;20114;-82
2022/03/19 09:30:42;;;;;;;38.67;23.23;;;16.30;65.10;;;;;;5012921;28;20023;-83
2022/03/19 09:33:08;;;;;;;43.90;24.13;;;16.90;63.70;;;;;;5013290;28;20041;-83
2022/03/19 09:35:35;;;;;;;34.63;22.40;;;18.40;60.80;;;;;;5010105;28;20023;-84
2022/03/19 09:38:01;;;;;;;40.53;22.77;;;19.60;58.10;;;;;;5004693;28;20097;-85
2022/03/19 09:40:27;;;;;;;40.90;23.05;;;20.80;54.60;;;;;;5003630;28;20018;-84
2022/03/19 09:42:54;;;;;;;38.35;22.60;;;21.50;51.70;;;;;;5004327;28;20042;-83
2022/03/19 09:45:23;;;;;;;38.55;21.92;;;22.00;50.40;;;;;;5004853;28;20022;-83
2022/03/19 09:47:50;;;;;;;38.72;20.17;;;22.30;49.10;;;;;;5002753;28;20049;-83
2022/03/19 09:50:17;;;;;;;27.42;17.25;;;22.60;47.50;;;;;;5003002;28;20053;-84
2022/03/19 09:52:43;;;;;;;29.90;18.50;;;23.10;44.70;;;;;;5008484;28;20042;-84
2022/03/19 09:55:16;;;;;;;30.02;18.33;;;23.00;44.30;;;;;;4991931;28;20033;-82
2022/03/19 09:57:43;;;;;;;38.55;19.70;;;22.90;43.20;;;;;;5010834;28;20042;-83
2022/03/19 10:00:10;;;;;;;33.03;18.50;;;23.00;43.70;;;;;;5014883;28;20038;-83
2022/03/19 10:03:01;;;;;;;30.08;18.33;;;23.10;42.90;;;;;;5019151;28;20030;-83
2022/03/19 10:08:36;;;;;;;28.60;16.70;;;23.30;41.10;;;;;;5014265;28;20030;-85
2022/03/19 10:11:06;;;;;;;29.90;18.35;;;23.90;40.70;;;;;;5010401;28;20050;-86
2022/03/19 10:13:36;;;;;;;34.30;17.77;;;23.60;40.10;;;;;;4991443;28;20169;-83
2022/03/19 10:16:02;;;;;;;30.25;17.75;;;23.70;39.70;;;;;;5012064;28;20033;-83
2022/03/19 10:18:29;;;;;;;28.33;16.25;;;24.60;39.50;;;;;;5006459;28;20034;-85
2022/03/19 10:21:03;;;;;;;29.63;16.65;;;25.40;38.50;;;;;;5005567;28;20030;-84
2022/03/19 10:23:39;;;;;;;27.52;17.73;;;24.20;38.20;;;;;;5007204;28;20033;-83
2022/03/19 10:26:06;;;;;;;28.75;17.20;;;23.20;39.00;;;;;;5004852;28;20036;-85
2022/03/19 10:28:36;;;;;;;28.75;17.05;;;23.60;39.20;;;;;;5004008;28;20057;-82
2022/03/19 10:31:02;;;;;;;27.60;17.10;;;24.90;38.30;;;;;;5004186;28;20062;-84
2022/03/19 10:33:31;;;;;;;30.95;17.13;;;25.80;37.80;;;;;;4985755;28;20029;-85
2022/03/19 10:36:09;;;;;;;27.08;17.05;;;25.50;37.60;;;;;;5003721;28;20031;-86
2022/03/19 10:38:43;;;;;;;27.35;16.88;;;25.00;37.40;;;;;;4989208;28;20034;-83
2022/03/19 10:41:11;;;;;;;26.92;16.88;;;24.80;37.10;;;;;;5015342;28;20027;-84
2022/03/19 10:43:37;;;;;;;24.73;15.93;;;24.80;37.20;;;;;;5012265;28;20027;-83
2022/03/19 10:46:04;;;;;;;26.42;16.58;;;25.00;37.20;;;;;;5015787;28;20061;-83
2022/03/19 10:48:30;;;;;;;27.50;17.67;;;25.30;36.90;;;;;;4988824;28;20026;-85
2022/03/19 10:51:01;;;;;;;28.25;15.93;;;25.10;36.30;;;;;;5002594;28;20037;-84
2022/03/19 10:53:27;;;;;;;27.17;17.23;;;25.20;36.60;;;;;;5007781;28;20053;-86
2022/03/19 10:55:53;;;;;;;25.77;16.60;;;26.40;36.10;;;;;;5014495;28;20030;-83
2022/03/19 10:58:19;;;;;;;31.20;16.88;;;26.80;36.20;;;;;;4996959;28;20038;-83
2022/03/19 11:00:50;;;;;;;26.60;16.30;;;26.70;35.90;;;;;;4990565;28;20565;-83
2022/03/19 11:03:24;;;;;;;28.90;16.98;;;26.40;35.80;;;;;;5004941;28;20053;-82
2022/03/19 11:05:57;;;;;;;27.47;16.00;;;26.40;35.60;;;;;;4986503;28;20038;-82
2022/03/19 11:08:24;;;;;;;27.50;17.05;;;26.40;35.30;;;;;;4986233;28;20269;-85
2022/03/19 11:10:52;;;;;;;22.58;15.82;;;25.70;35.50;;;;;;5003150;28;20023;-84
2022/03/19 11:13:22;;;;;;;23.88;15.90;;;26.30;35.00;;;;;;5002452;28;20033;-86
2022/03/19 11:15:51;;;;;;;26.88;17.25;;;26.10;34.90;;;;;;4985608;28;20018;-84
2022/03/19 11:18:20;;;;;;;27.33;15.85;;;25.80;35.20;;;;;;4985484;28;20030;-83
2022/03/19 11:20:48;;;;;;;24.67;16.58;;;27.00;35.10;;;;;;4987701;28;20034;-82
2022/03/19 11:23:19;;;;;;;28.60;17.77;;;27.40;34.90;;;;;;5007408;28;20035;-83
2022/03/19 11:25:53;;;;;;;29.83;18.42;;;27.30;35.10;;;;;;4989861;28;20030;-85
2022/03/19 11:28:19;;;;;;;28.10;17.95;;;26.80;35.10;;;;;;5012682;28;20041;-84
2022/03/19 11:31:10;;;;;;;29.02;17.88;;;27.20;35.00;;;;;;5008243;28;20049;-85
2022/03/19 11:33:37;;;;;;;25.35;18.25;;;27.90;34.40;;;;;;4990814;28;20030;-83
2022/03/19 11:36:10;;;;;;;31.77;17.98;;;27.00;34.20;;;;;;5007384;28;20022;-84
2022/03/19 11:38:51;;;;;;;27.27;17.45;;;27.70;34.80;;;;;;5014026;28;20022;-83
2022/03/19 11:41:29;;;;;;;28.38;17.83;;;27.90;34.20;;;;;;5008204;28;20030;-85
2022/03/19 11:44:23;;;;;;;31.35;18.42;;;28.10;33.90;;;;;;5005210;28;20030;-82
2022/03/19 11:47:00;;;;;;;25.83;17.45;;;27.50;34.00;;;;;;5005874;28;20049;-84
2022/03/19 11:49:44;;;;;;;26.25;16.75;;;27.90;33.80;;;;;;5003013;28;20454;-84
2022/03/19 11:52:10;;;;;;;23.10;16.00;;;28.20;33.50;;;;;;4983384;28;20039;-83
2022/03/19 11:55:02;;;;;;;25.30;15.27;;;28.30;33.50;;;;;;4999852;28;20054;-84
2022/03/19 11:57:28;;;;;;;23.48;15.85;;;27.80;32.90;;;;;;5001103;28;20034;-84
2022/03/19 12:00:01;;;;;;;23.98;16.42;;;27.20;32.70;;;;;;5005286;28;20026;-83
2022/03/19 12:03:12;;;;;;;26.02;15.93;;;27.70;32.50;;;;;;5000495;28;20057;-83
2022/03/19 12:05:48;;;;;;;24.27;16.23;;;27.10;32.90;;;;;;5004380;28;20026;-83
2022/03/19 12:08:19;;;;;;;25.58;16.98;;;26.50;33.50;;;;;;5008182;28;20029;-84
2022/03/19 12:11:02;;;;;;;24.20;15.75;;;26.40;33.50;;;;;;5017261;28;20023;-82
2022/03/19 12:13:28;;;;;;;27.65;17.13;;;26.20;33.30;;;;;;5015295;28;20030;-82
2022/03/19 12:15:58;;;;;;;28.00;17.52;;;26.10;33.20;;;;;;5014138;28;20023;-83
2022/03/19 12:18:33;;;;;;;27.67;17.98;;;25.30;33.80;;;;;;5014293;28;20075;-82
2022/03/19 12:21:23;;;;;;;27.65;17.98;;;24.90;34.00;;;;;;5013044;28;20134;-84
2022/03/19 12:24:18;;;;;;;25.80;16.10;;;25.50;33.80;;;;;;4996049;28;20062;-81
2022/03/19 12:26:49;;;;;;;28.58;17.27;;;25.70;33.70;;;;;;4996988;28;20057;-83
2022/03/19 12:29:18;;;;;;;27.33;18.00;;;25.20;33.80;;;;;;5013167;28;20030;-84
2022/03/19 12:31:52;;;;;;;26.70;17.42;;;26.10;33.80;;;;;;5005919;28;20036;-83
2022/03/19 12:34:23;;;;;;;25.88;16.73;;;26.80;33.30;;;;;;4988824;28;20048;-85
2022/03/19 12:37:02;;;;;;;33.05;17.40;;;27.70;33.10;;;;;;5012706;28;20056;-86
2022/03/19 12:39:29;;;;;;;27.98;17.52;;;28.20;33.10;;;;;;5016457;28;20077;-86
2022/03/19 12:41:55;;;;;;;27.45;17.60;;;28.30;33.00;;;;;;5016925;28;20034;-85
2022/03/19 12:44:25;;;;;;;22.90;17.45;;;28.50;32.80;;;;;;4999639;28;20030;-85
2022/03/19 12:46:58;;;;;;;27.30;17.52;;;27.70;32.60;;;;;;5000293;28;20041;-86
2022/03/19 12:49:25;;;;;;;26.50;17.00;;;27.70;32.60;;;;;;5017653;28;20042;-85
2022/03/19 12:51:50;;;;;;;23.45;15.88;;;28.60;32.50;;;;;;5016975;28;20021;-85
2022/03/19 12:54:31;;;;;;;20.67;15.18;;;28.20;31.70;;;;;;4999535;28;20090;-87
2022/03/19 12:57:11;;;;;;;21.38;14.40;;;28.40;31.70;;;;;;5016847;28;20042;-87